Time;durP1;ratioP1;P1;durP2;ratioP2;P2;SDS_P1;SDS_P2;PMS_P1;PMS_P2;Temp;Humidity;BMP_temperature;BMP_pressure;BME280_temperature;BME280_humidity;BME280_pressure;Samples;Min_cycle;Max_cycle;Signal;HPM_P1;HPM_P2
2023/10/17 00:01:14;;;;;;;2.17;1.30;;;;;;;7.00;81.09;99051.50;5035394;28;20076;-60
2023/10/17 00:03:46;;;;;;;3.25;1.20;;;;;;;7.06;80.16;99051.34;5044769;28;20070;-60
2023/10/17 00:06:22;;;;;;;3.80;1.50;;;;;;;7.09;79.42;99046.94;5034345;28;20056;-60
2023/10/17 00:08:53;;;;;;;4.07;1.60;;;;;;;7.19;79.98;99047.59;5047955;28;20055;-60
2023/10/17 00:11:32;;;;;;;5.35;1.60;;;;;;;7.25;79.45;99044.84;5049216;28;20230;-60
2023/10/17 00:14:07;;;;;;;3.80;1.30;;;;;;;7.27;79.31;99044.84;5049035;28;20062;-60
2023/10/17 00:16:38;;;;;;;6.47;2.63;;;;;;;7.35;79.03;99037.72;5040166;28;20378;-60
2023/10/17 00:19:10;;;;;;;5.38;1.90;;;;;;;7.54;78.80;99038.16;5051077;28;20263;-60
2023/10/17 00:21:42;;;;;;;3.53;1.58;;;;;;;7.73;79.21;99026.41;5039779;28;20056;-60
2023/10/17 00:24:13;;;;;;;1.83;1.10;;;;;;;7.81;78.21;99020.16;5041580;28;20140;-60
2023/10/17 00:26:43;;;;;;;1.30;0.95;;;;;;;7.92;77.03;99023.34;5050631;28;20060;-60
2023/10/17 00:29:14;;;;;;;1.63;0.90;;;;;;;7.84;75.01;99020.06;5040065;28;20059;-61
2023/10/17 00:31:46;;;;;;;3.05;1.00;;;;;;;7.81;75.04;99020.16;5050143;28;20052;-61
2023/10/17 00:34:16;;;;;;;2.50;0.80;;;;;;;7.84;74.17;99020.06;5041086;28;20059;-60
2023/10/17 00:37:00;;;;;;;1.15;0.73;;;;;;;7.80;73.33;99023.66;5050053;28;20496;-61
2023/10/17 00:39:31;;;;;;;0.85;0.70;;;;;;;7.82;73.95;99021.88;5040629;28;20062;-60
2023/10/17 00:42:27;;;;;;;0.77;0.77;;;;;;;7.76;73.23;98992.53;5050316;28;20149;-61
2023/10/17 00:44:58;;;;;;;0.77;0.77;;;;;;;8.00;73.43;99016.19;5050326;28;20153;-59
2023/10/17 00:47:28;;;;;;;1.65;0.80;;;;;;;8.00;73.10;99016.19;5076497;27;20368;-60
2023/10/17 00:50:03;;;;;;;1.35;0.80;;;;;;;8.01;72.66;99012.69;5089320;27;20051;-60
2023/10/17 00:52:35;;;;;;;3.30;0.80;;;;;;;8.00;72.55;99000.59;5078795;28;20055;-60
2023/10/17 00:55:11;;;;;;;3.70;0.90;;;;;;;8.05;73.57;99009.13;5089030;28;20051;-60
2023/10/17 00:57:42;;;;;;;3.22;1.45;;;;;;;8.05;73.09;99006.53;5078602;28;20047;-60
2023/10/17 01:00:23;;;;;;;1.52;0.95;;;;;;;8.10;73.58;99002.06;5080365;28;20057;-60
2023/10/17 01:02:58;;;;;;;1.15;0.68;;;;;;;8.15;72.99;99005.38;5092286;27;20128;-60
2023/10/17 01:05:29;;;;;;;1.10;0.70;;;;;;;8.06;71.81;99010.81;5083266;27;20052;-60
2023/10/17 01:08:01;;;;;;;6.75;1.50;;;;;;;8.09;72.46;99010.78;5093507;27;20047;-59
2023/10/17 01:10:31;;;;;;;3.67;0.90;;;;;;;8.08;71.58;99014.25;5082359;27;20062;-60
2023/10/17 01:13:02;;;;;;;2.42;1.17;;;;;;;7.96;71.61;99020.66;5093123;27;20047;-60
2023/10/17 01:15:36;;;;;;;1.00;0.70;;;;;;;7.87;71.80;99020.03;5082266;27;20138;-60
2023/10/17 01:18:07;;;;;;;1.02;0.75;;;;;;;7.80;72.28;99010.66;5094006;27;20048;-60
2023/10/17 01:20:37;;;;;;;1.77;1.00;;;;;;;7.71;72.38;99002.22;5082976;27;20047;-60
2023/10/17 01:23:10;;;;;;;0.70;0.70;;;;;;;7.74;72.49;99030.72;5093220;27;20044;-60
2023/10/17 01:25:42;;;;;;;5.07;0.90;;;;;;;7.62;73.05;99020.63;5082244;27;20055;-60
2023/10/17 01:28:13;;;;;;;1.17;1.00;;;;;;;7.61;73.71;99018.91;5082322;27;20054;-60
2023/10/17 01:30:45;;;;;;;0.90;0.60;;;;;;;7.74;74.25;99012.53;5092891;27;20134;-60
2023/10/17 01:33:16;;;;;;;2.28;0.80;;;;;;;7.87;74.36;99005.25;5082659;27;20039;-60
2023/10/17 01:35:47;;;;;;;1.25;0.80;;;;;;;7.99;73.35;99009.31;5092846;27;20054;-60
2023/10/17 01:38:19;;;;;;;3.80;0.88;;;;;;;7.91;71.61;99000.81;5082745;27;20104;-60
2023/10/17 01:40:51;;;;;;;6.10;0.90;;;;;;;7.90;72.14;98999.13;5092871;27;20066;-60
2023/10/17 01:43:21;;;;;;;4.45;0.80;;;;;;;7.97;73.07;98990.28;5082503;27;20135;-60
2023/10/17 01:45:54;;;;;;;2.05;1.02;;;;;;;8.10;73.92;98991.66;5092598;27;20084;-60
2023/10/17 01:48:25;;;;;;;0.82;0.80;;;;;;;8.24;73.16;98982.59;5082738;27;20047;-60
2023/10/17 01:50:55;;;;;;;3.20;0.80;;;;;;;8.37;73.30;98989.19;5093335;27;20491;-60
2023/10/17 01:53:27;;;;;;;1.02;0.70;;;;;;;8.40;71.85;98997.78;5082098;27;20477;-60
2023/10/17 01:56:06;;;;;;;1.17;0.70;;;;;;;8.26;70.19;98992.06;5092576;27;20500;-60
2023/10/17 01:58:37;;;;;;;;;;;;;;;8.18;71.20;98986.25;5082006;27;20051;-60
2023/10/17 02:01:12;;;;;;;2.00;1.10;;;;;;;7.74;69.72;98955.31;5092490;27;19939;-60
2023/10/17 02:03:42;;;;;;;2.92;0.93;;;;;;;7.87;71.03;98983.59;5081855;27;20123;-61
2023/10/17 02:06:16;;;;;;;0.90;0.80;;;;;;;7.70;69.89;98969.28;5081812;27;20051;-60
2023/10/17 02:08:47;;;;;;;1.98;1.10;;;;;;;7.62;69.18;98952.19;5093011;27;20120;-60
2023/10/17 02:11:29;;;;;;;1.38;0.90;;;;;;;7.61;70.37;98960.84;5080574;27;20051;-60
2023/10/17 02:13:59;;;;;;;1.77;0.80;;;;;;;7.60;69.40;98961.75;5090830;27;20051;-61
2023/10/17 02:16:32;;;;;;;2.47;1.00;;;;;;;7.60;69.54;98954.81;5081215;27;20051;-61
2023/10/17 02:19:07;;;;;;;2.20;1.00;;;;;;;7.64;69.70;98956.44;5091595;27;20069;-60
2023/10/17 02:21:38;;;;;;;1.55;0.90;;;;;;;7.67;69.08;98950.31;5080606;27;20058;-60
2023/10/17 02:24:09;;;;;;;1.05;0.90;;;;;;;7.70;68.88;98945.88;5092311;27;20146;-61
2023/10/17 02:26:46;;;;;;;3.30;1.10;;;;;;;7.75;69.30;98944.00;5081317;27;20053;-61
2023/10/17 02:29:19;;;;;;;2.20;1.35;;;;;;;7.75;68.91;98948.38;5081150;27;20481;-60
2023/10/17 02:31:55;;;;;;;5.00;1.67;;;;;;;7.75;70.33;98959.63;5091821;27;20093;-61
2023/10/17 02:34:29;;;;;;;1.90;0.95;;;;;;;7.76;69.46;98953.53;5081673;27;20047;-60
2023/10/17 02:37:00;;;;;;;1.17;1.00;;;;;;;7.66;69.84;98964.19;5091405;27;20062;-61
2023/10/17 02:39:31;;;;;;;3.35;1.90;;;;;;;7.71;71.19;98963.19;5080987;27;20053;-62
2023/10/17 02:42:06;;;;;;;1.83;0.90;;;;;;;7.71;70.94;98963.19;5091593;27;20058;-61
2023/10/17 02:44:39;;;;;;;4.07;1.10;;;;;;;7.61;71.71;98961.69;5080939;27;20056;-61
2023/10/17 02:47:15;;;;;;;2.78;1.00;;;;;;;7.66;72.43;98959.00;5091039;27;20490;-60
2023/10/17 02:49:46;;;;;;;1.50;0.82;;;;;;;7.80;73.17;98956.91;5080641;27;20046;-62
2023/10/17 02:52:19;;;;;;;3.72;0.80;;;;;;;7.73;71.29;98969.19;5080824;27;20136;-61
2023/10/17 02:55:00;;;;;;;4.70;1.10;;;;;;;7.80;72.86;98950.84;5090901;27;20051;-60
2023/10/17 02:57:33;;;;;;;3.00;1.20;;;;;;;7.91;72.95;98954.88;5080291;27;21946;-61
2023/10/17 03:00:21;;;;;;;4.43;1.52;;;;;;;7.90;71.29;98947.97;5091935;27;20152;-61
2023/10/17 03:02:55;;;;;;;3.33;1.40;;;;;;;7.89;71.64;98950.63;5081177;27;20053;-61
2023/10/17 03:05:27;;;;;;;1.90;0.80;;;;;;;7.85;71.13;98943.78;5080457;27;20043;-61
2023/10/17 03:07:57;;;;;;;2.10;1.20;;;;;;;7.85;71.90;98934.22;5090583;27;20186;-61
2023/10/17 03:10:37;;;;;;;1.83;0.95;;;;;;;7.86;72.15;98940.28;5079818;27;20047;-61
2023/10/17 03:13:22;;;;;;;2.97;1.10;;;;;;;7.81;71.18;98937.78;5090706;27;20163;-61
2023/10/17 03:15:56;;;;;;;3.00;1.05;;;;;;;7.93;72.81;98932.25;5090635;27;20058;-61
2023/10/17 03:18:26;;;;;;;3.15;1.10;;;;;;;7.98;72.87;98924.34;5079588;27;20615;-61
2023/10/17 03:20:56;;;;;;;3.80;0.85;;;;;;;8.01;72.42;98926.84;5091616;27;20056;-61
2023/10/17 03:23:28;;;;;;;3.13;1.08;;;;;;;8.03;73.15;98919.00;5079954;27;20099;-61
2023/10/17 03:26:00;;;;;;;2.45;0.90;;;;;;;8.05;71.86;98915.47;5089582;27;20051;-61
2023/10/17 03:28:33;;;;;;;1.23;0.90;;;;;;;8.04;70.75;98913.78;5080339;27;20428;-61
2023/10/17 03:31:10;;;;;;;2.22;0.80;;;;;;;8.04;70.79;98918.09;5090498;27;20052;-60
2023/10/17 03:33:42;;;;;;;1.73;0.80;;;;;;;7.95;69.51;98927.88;5079579;27;20055;-61
2023/10/17 03:39:03;;;;;;;3.90;1.40;;;;;;;7.92;69.96;98927.13;5090839;27;20051;-61
2023/10/17 03:41:37;;;;;;;3.03;1.33;;;;;;;7.84;67.50;98926.44;5079641;27;20051;-61
2023/10/17 03:44:09;;;;;;;7.72;2.00;;;;;;;7.84;68.15;98916.94;5090361;27;20477;-61
2023/10/17 03:46:39;;;;;;;2.88;0.90;;;;;;;7.89;68.38;98919.41;5055868;27;20076;-60
2023/10/17 03:49:10;;;;;;;2.50;0.98;;;;;;;7.94;67.55;98913.19;5050433;28;20052;-62
2023/10/17 03:51:45;;;;;;;7.85;1.30;;;;;;;7.96;66.68;98918.31;5039622;28;20064;-61
2023/10/17 03:54:18;;;;;;;5.03;2.17;;;;;;;8.03;67.79;98906.84;5040120;28;20059;-62
2023/10/17 03:56:55;;;;;;;2.15;1.15;;;;;;;8.02;66.56;98910.38;5051076;28;20079;-62
2023/10/17 03:59:38;;;;;;;3.33;1.02;;;;;;;8.01;66.21;98913.84;5040435;28;20045;-62
2023/10/17 04:02:12;;;;;;;4.22;0.80;;;;;;;7.99;65.93;98910.47;5050495;28;20191;-62
2023/10/17 04:04:52;;;;;;;1.42;1.00;;;;;;;8.03;66.80;98904.25;5040144;28;20040;-61
2023/10/17 04:07:26;;;;;;;1.92;0.90;;;;;;;8.01;65.47;98908.63;5040144;28;20063;-61
2023/10/17 04:10:18;;;;;;;1.30;0.80;;;;;;;7.99;64.70;98906.09;5049926;28;20056;-61
2023/10/17 04:13:12;;;;;;;2.60;1.00;;;;;;;7.53;64.84;98854.47;5039922;28;20093;-60
2023/10/17 04:15:44;;;;;;;2.15;1.00;;;;;;;7.75;67.50;98892.00;5038934;28;20051;-61
2023/10/17 04:18:15;;;;;;;7.10;1.20;;;;;;;7.82;67.70;98907.47;5040019;28;20150;-61
2023/10/17 04:20:46;;;;;;;2.03;1.10;;;;;;;7.77;66.72;98897.19;5050181;28;20055;-61
2023/10/17 04:23:26;;;;;;;1.75;0.77;;;;;;;7.70;66.55;98919.88;5039499;28;20058;-61
2023/10/17 04:25:56;;;;;;;;;;;;;;;7.64;67.46;98913.97;5050443;28;20060;-61
2023/10/17 04:28:28;;;;;;;1.92;0.90;;;;;;;7.51;70.02;98916.03;5040150;28;20471;-61
2023/10/17 04:31:00;;;;;;;2.95;0.90;;;;;;;7.23;71.61;98940.13;5049763;28;20050;-60
2023/10/17 04:33:31;;;;;;;2.15;0.90;;;;;;;6.96;74.03;98919.97;5039518;28;20437;-61
2023/10/17 04:36:03;;;;;;;2.00;1.05;;;;;;;6.90;76.43;98947.81;5050216;28;20102;-61
2023/10/17 04:38:46;;;;;;;3.33;0.90;;;;;;;6.70;77.02;98939.59;5039387;28;20097;-61
2023/10/17 04:41:30;;;;;;;1.80;0.85;;;;;;;6.60;78.99;98943.28;5039662;28;20053;-61
2023/10/17 04:44:05;;;;;;;2.50;1.17;;;;;;;6.58;79.96;98942.47;5049587;28;20044;-61
2023/10/17 04:46:49;;;;;;;1.92;0.80;;;;;;;6.57;81.34;98932.97;5039257;28;20053;-61
2023/10/17 04:49:24;;;;;;;2.33;0.80;;;;;;;6.51;82.33;98938.28;5039122;28;20056;-61
2023/10/17 04:52:02;;;;;;;1.70;0.60;;;;;;;6.46;83.12;98936.66;5050206;28;20059;-61
2023/10/17 04:54:39;;;;;;;0.80;0.70;;;;;;;6.51;83.44;98938.28;5039620;28;20105;-61
2023/10/17 04:57:09;;;;;;;0.73;0.70;;;;;;;6.50;84.08;98932.25;5049914;28;20131;-61
2023/10/17 04:59:51;;;;;;;2.47;0.88;;;;;;;6.52;85.04;98929.63;5038873;28;20063;-61
2023/10/17 05:02:41;;;;;;;1.80;1.02;;;;;;;6.45;86.42;98919.38;5039349;28;20075;-61
2023/10/17 05:08:21;;;;;;;2.20;1.00;;;;;;;6.44;85.95;98904.69;4996578;28;20169;-62
2023/10/17 06:18:17;;;;;;;2.45;0.70;;;;;;;6.40;99.37;98962.72;5052033;28;20056;-61
2023/10/17 06:27:00;;;;;;;0.60;0.60;;;;;;;6.34;99.82;98961.97;5037400;28;20785;-61
2023/10/17 06:33:03;;;;;;;2.10;1.27;;;;;;;6.43;100.00;98960.06;5001986;28;20052;-61
2023/10/17 06:35:33;;;;;;;2.58;1.00;;;;;;;6.37;100.00;98957.59;5041460;28;20063;-61
2023/10/17 06:38:05;;;;;;;2.67;0.90;;;;;;;6.28;100.00;98947.41;5052057;28;20060;-61
2023/10/17 06:40:44;;;;;;;1.13;0.93;;;;;;;6.44;100.00;98954.00;5041419;28;20048;-61
2023/10/17 06:43:27;;;;;;;1.23;0.90;;;;;;;6.41;100.00;98954.03;5042128;28;20048;-61
2023/10/17 06:46:05;;;;;;;2.05;0.80;;;;;;;6.41;100.00;98963.56;5045666;28;20699;-60
2023/10/17 06:48:36;;;;;;;2.50;0.90;;;;;;;6.44;100.00;98954.00;5021586;28;20063;-61
2023/10/17 06:53:55;;;;;;;1.10;0.75;;;;;;;6.38;100.00;98954.09;5031205;28;20060;-60
2023/10/17 06:56:25;;;;;;;0.77;0.77;;;;;;;6.35;100.00;98969.75;5021496;28;20114;-61
2023/10/17 06:59:04;;;;;;;1.20;1.10;;;;;;;6.30;100.00;98976.75;5031779;28;20053;-61
2023/10/17 07:01:35;;;;;;;3.00;2.50;;;;;;;6.20;100.00;98975.22;5020384;28;20063;-60
2023/10/17 07:04:11;;;;;;;2.85;1.73;;;;;;;6.16;100.00;98978.75;5031702;28;20447;-60
2023/10/17 07:06:41;;;;;;;2.08;1.30;;;;;;;6.07;100.00;98978.97;5022681;28;20388;-61
2023/10/17 07:09:24;;;;;;;2.95;1.50;;;;;;;5.89;100.00;98970.59;5023931;28;20049;-61
2023/10/17 07:11:55;;;;;;;5.00;1.80;;;;;;;5.90;100.00;98967.09;5030967;28;20148;-61
2023/10/17 07:14:27;;;;;;;0.80;0.80;;;;;;;5.90;100.00;98977.47;5021278;28;20045;-61
2023/10/17 07:17:09;;;;;;;3.85;1.50;;;;;;;5.77;100.00;98996.72;5031013;28;20676;-60
2023/10/17 07:19:47;;;;;;;3.17;0.93;;;;;;;5.61;100.00;98986.59;5020683;28;20053;-61
2023/10/17 07:22:18;;;;;;;0.95;0.70;;;;;;;5.61;100.00;98991.78;5021688;28;20052;-61
2023/10/17 07:24:50;;;;;;;1.02;0.90;;;;;;;5.68;100.00;98994.28;5031048;28;20060;-61
2023/10/17 07:27:26;;;;;;;3.95;0.80;;;;;;;5.73;100.00;98979.50;5021306;28;20925;-61
2023/10/17 07:30:10;;;;;;;1.05;0.90;;;;;;;5.87;100.00;98987.91;5030781;28;20056;-61
2023/10/17 07:32:47;;;;;;;0.90;0.70;;;;;;;5.85;100.00;99000.03;5020517;28;20040;-61
2023/10/17 07:35:23;;;;;;;3.28;1.00;;;;;;;5.78;100.00;99004.47;5020253;28;20113;-61
2023/10/17 07:37:57;;;;;;;1.95;0.80;;;;;;;5.53;100.00;98965.16;5031037;28;20057;-60
2023/10/17 07:40:53;;;;;;;1.60;0.90;;;;;;;5.70;100.00;99011.53;5020744;28;20057;-60
2023/10/17 07:43:24;;;;;;;1.60;1.25;;;;;;;5.69;100.00;99008.94;5020663;28;20153;-61
2023/10/17 07:46:06;;;;;;;1.73;1.40;;;;;;;5.73;100.00;99026.16;5036470;28;20048;-62
2023/10/17 07:48:37;;;;;;;3.00;1.10;;;;;;;5.69;100.00;99021.91;5040004;28;20063;-62
2023/10/17 07:51:08;;;;;;;1.23;0.93;;;;;;;5.67;100.00;99026.28;5050807;28;20103;-62
2023/10/17 07:53:45;;;;;;;3.78;0.90;;;;;;;5.67;100.00;99031.47;5039814;28;20131;-61
2023/10/17 07:56:23;;;;;;;3.05;0.90;;;;;;;5.06;100.00;98925.31;5040499;28;20040;-62
2023/10/17 07:59:04;;;;;;;1.25;1.00;;;;;;;5.77;100.00;99038.22;5050050;28;20540;-62
2023/10/17 08:01:42;;;;;;;1.30;1.00;;;;;;;5.73;100.00;99044.31;5039913;28;20056;-62
2023/10/17 08:04:24;;;;;;;0.98;0.80;;;;;;;5.68;100.00;99038.34;5042385;28;20073;-62
2023/10/17 08:06:56;;;;;;;3.28;1.10;;;;;;;5.78;100.00;99055.47;5050361;28;20106;-61
2023/10/17 08:09:36;;;;;;;1.05;0.88;;;;;;;5.83;100.00;99053.63;5040225;28;20481;-62
2023/10/17 08:12:13;;;;;;;3.42;2.08;;;;;;;5.84;100.00;99060.53;5048325;28;20091;-62
2023/10/17 08:14:45;;;;;;;4.25;2.47;;;;;;;5.84;100.00;99065.72;5040079;28;21281;-62
2023/10/17 08:17:19;;;;;;;2.75;1.90;;;;;;;5.86;100.00;99068.28;5039687;28;20044;-62
2023/10/17 08:20:45;;;;;;;1.73;1.20;;;;;;;5.89;100.00;99069.13;5049476;28;20151;-62
2023/10/17 08:23:06;;;;;;;1.73;0.88;;;;;;;5.97;100.00;99080.25;5050074;28;20591;-62
2023/10/17 08:25:52;;;;;;;3.42;1.17;;;;;;;6.00;100.00;99087.97;5038657;28;20059;-63
2023/10/17 08:28:33;;;;;;;2.45;0.80;;;;;;;6.03;100.00;99095.69;5040009;28;20052;-62
2023/10/17 08:31:17;;;;;;;3.35;1.05;;;;;;;5.97;100.00;99093.19;5049849;28;20063;-62
2023/10/17 08:33:56;;;;;;;1.48;0.85;;;;;;;6.03;100.00;99103.47;5039296;28;20057;-61
2023/10/17 08:36:42;;;;;;;3.50;0.90;;;;;;;6.03;100.00;99116.44;5039711;28;20141;-62
2023/10/17 08:39:38;;;;;;;2.80;1.75;;;;;;;5.99;100.00;99107.00;5039367;28;20056;-61
2023/10/17 08:42:13;;;;;;;2.60;1.10;;;;;;;6.00;100.00;99113.88;5049617;28;20117;-61
2023/10/17 08:44:46;;;;;;;1.88;1.00;;;;;;;6.01;100.00;99122.50;5039541;28;20106;-61
2023/10/17 08:47:18;;;;;;;1.80;0.82;;;;;;;6.07;100.00;99129.38;5039390;28;20053;-61
2023/10/17 08:49:50;;;;;;;2.50;1.20;;;;;;;6.10;100.00;99134.50;5049191;28;20032;-61
2023/10/17 08:52:23;;;;;;;2.22;1.35;;;;;;;6.16;100.00;99140.41;5040239;28;20040;-61
2023/10/17 08:54:53;;;;;;;3.72;1.38;;;;;;;6.21;100.00;99148.13;5052267;28;20048;-61
2023/10/17 08:57:25;;;;;;;2.25;1.17;;;;;;;6.25;100.00;99152.41;5042910;28;20072;-62
2023/10/17 09:02:48;;;;;;;5.90;1.77;;;;;;;6.34;100.00;99160.03;5039446;28;20044;-60
2023/10/17 09:05:26;;;;;;;4.75;1.85;;;;;;;6.37;100.00;99154.78;5039470;28;20518;-61
2023/10/17 09:08:03;;;;;;;4.40;2.15;;;;;;;6.42;100.00;99168.53;5049389;28;20063;-62
2023/10/17 09:10:37;;;;;;;6.20;1.80;;;;;;;6.44;100.00;99166.78;5039505;28;20079;-62
2023/10/17 09:15:57;;;;;;;6.25;2.17;;;;;;;6.52;100.00;99178.75;5049120;28;20099;-61
2023/10/17 09:18:29;;;;;;;4.97;2.00;;;;;;;6.55;100.00;99178.69;5039419;28;20501;-62
2023/10/17 09:21:05;;;;;;;4.40;1.77;;;;;;;6.56;100.00;99190.78;5048806;28;20076;-61
2023/10/17 09:23:38;;;;;;;5.60;2.30;;;;;;;6.59;100.00;99190.72;5039541;28;20055;-62
2023/10/17 09:26:10;;;;;;;6.50;2.10;;;;;;;6.60;100.00;99202.84;5053044;28;20056;-62
2023/10/17 09:28:41;;;;;;;4.30;1.70;;;;;;;6.67;100.00;99199.25;5042934;28;20059;-61
2023/10/17 09:31:13;;;;;;;6.63;1.70;;;;;;;6.69;100.00;99198.34;5045924;28;20170;-61
2023/10/17 09:33:45;;;;;;;4.13;1.90;;;;;;;6.26;100.00;99131.63;5052720;28;20139;-61
2023/10/17 09:36:18;;;;;;;7.57;2.10;;;;;;;6.72;100.00;99213.00;5042849;28;20082;-61
2023/10/17 09:38:49;;;;;;;2.83;1.70;;;;;;;6.47;100.00;99181.44;5052868;28;20067;-62
2023/10/17 09:41:20;;;;;;;6.47;2.05;;;;;;;6.69;100.00;99213.06;5042376;28;20053;-62
2023/10/17 09:43:53;;;;;;;6.30;2.80;;;;;;;6.78;100.00;99232.81;5052885;28;20142;-62
2023/10/17 09:46:28;;;;;;;3.63;1.38;;;;;;;6.81;100.00;99243.97;5043281;28;20143;-62
2023/10/17 09:49:02;;;;;;;4.97;1.70;;;;;;;6.80;100.00;99247.47;5053380;28;20414;-62
2023/10/17 09:51:40;;;;;;;7.43;1.95;;;;;;;6.84;100.00;99254.34;5044710;28;20102;-61
2023/10/17 09:54:13;;;;;;;5.53;2.15;;;;;;;6.78;100.00;99244.03;5051210;28;20242;-64
2023/10/17 09:56:46;;;;;;;5.65;2.00;;;;;;;6.83;100.00;99263.00;5044960;28;20041;-60
2023/10/17 09:59:24;;;;;;;4.82;2.80;;;;;;;6.83;100.00;99273.38;5045022;28;20045;-62
2023/10/17 10:01:57;;;;;;;4.28;2.10;;;;;;;6.84;100.00;99269.91;5054666;28;20075;-61
2023/10/17 10:04:28;;;;;;;5.65;2.28;;;;;;;6.85;100.00;99282.00;5044874;28;20451;-60
2023/10/17 10:07:21;;;;;;;5.50;1.98;;;;;;;6.86;100.00;99286.34;5056608;28;20044;-59
2023/10/17 10:09:51;;;;;;;3.00;1.55;;;;;;;6.58;100.00;99256.50;5042908;28;20033;-59
2023/10/17 10:12:22;;;;;;;6.38;3.45;;;;;;;6.83;100.00;99288.97;5045214;28;20048;-59
2023/10/17 10:14:52;;;;;;;6.90;2.05;;;;;;;6.89;100.00;99314.84;5054138;28;20147;-59
2023/10/17 10:17:46;;;;;;;3.40;1.60;;;;;;;6.93;100.00;99314.78;5046692;28;20055;-59
2023/10/17 10:20:17;;;;;;;7.97;2.20;;;;;;;6.95;100.00;99328.59;5044452;28;20052;-60
2023/10/17 10:22:56;;;;;;;7.07;1.80;;;;;;;6.98;100.00;99328.56;5055597;28;20059;-60
2023/10/17 10:25:26;;;;;;;4.60;1.60;;;;;;;7.01;100.00;99338.88;5045019;28;20470;-60
2023/10/17 10:28:29;;;;;;;3.35;1.67;;;;;;;7.00;100.00;99347.56;5053125;28;20474;-60
2023/10/17 10:30:59;;;;;;;4.05;1.35;;;;;;;6.97;100.00;99343.28;5052434;28;20083;-60
2023/10/17 10:33:31;;;;;;;4.90;1.75;;;;;;;7.06;100.00;99352.66;5044998;28;20044;-60
2023/10/17 10:36:04;;;;;;;9.60;1.60;;;;;;;7.08;100.00;99362.13;5054652;28;20162;-60
2023/10/17 10:38:38;;;;;;;3.75;1.83;;;;;;;7.07;100.00;99364.78;5042818;28;20613;-60
2023/10/17 10:41:11;;;;;;;4.13;1.60;;;;;;;7.07;100.00;99369.97;5051928;28;20041;-60
2023/10/17 10:43:42;;;;;;;4.82;1.80;;;;;;;7.07;100.00;99375.16;5043427;28;20058;-60
2023/10/17 10:46:14;;;;;;;4.88;2.33;;;;;;;7.04;100.00;99375.19;5047010;28;20123;-60
2023/10/17 10:48:51;;;;;;;6.78;1.58;;;;;;;7.04;100.00;99375.19;5055835;28;20047;-60
2023/10/17 10:51:24;;;;;;;8.32;2.20;;;;;;;7.04;100.00;99378.66;5044078;28;20362;-60
2023/10/17 10:53:56;;;;;;;10.88;1.90;;;;;;;6.96;100.00;99367.53;5053268;28;20352;-60
2023/10/17 10:56:27;;;;;;;7.88;2.17;;;;;;;7.07;100.00;99395.94;5043755;28;20040;-59
2023/10/17 10:58:57;;;;;;;5.35;1.90;;;;;;;7.07;100.00;99403.75;5054929;28;20057;-60
2023/10/17 11:01:28;;;;;;;7.70;2.60;;;;;;;7.06;100.00;99417.59;5044071;28;20048;-60
2023/10/17 11:04:00;;;;;;;5.40;1.88;;;;;;;7.08;100.00;99413.22;5053827;28;20048;-59
2023/10/17 11:06:31;;;;;;;6.05;2.15;;;;;;;7.09;100.00;99414.97;5042956;28;20344;-59
2023/10/17 11:09:07;;;;;;;5.00;2.00;;;;;;;7.09;100.00;99435.75;5053378;28;20394;-59
2023/10/17 11:11:45;;;;;;;6.18;2.40;;;;;;;7.11;100.00;99433.97;5051105;28;20042;-59
2023/10/17 11:14:19;;;;;;;5.18;2.33;;;;;;;7.10;100.00;99447.84;5041922;28;20052;-60
2023/10/17 11:16:51;;;;;;;7.18;2.40;;;;;;;7.14;100.00;99446.94;5054634;28;20040;-60
2023/10/17 11:19:22;;;;;;;7.40;2.22;;;;;;;7.16;100.00;99446.88;5044274;28;20091;-59
2023/10/17 11:21:57;;;;;;;8.60;2.50;;;;;;;7.16;100.00;99465.06;5084783;28;20044;-60
2023/10/17 11:24:30;;;;;;;7.13;2.42;;;;;;;7.21;100.00;99471.91;5064218;28;20990;-60
2023/10/17 11:27:03;;;;;;;5.72;2.20;;;;;;;7.21;100.00;99482.28;5053066;28;20459;-60
2023/10/17 11:29:35;;;;;;;5.65;1.90;;;;;;;7.18;100.00;99477.16;5052968;28;20063;-60
2023/10/17 11:32:11;;;;;;;5.50;2.22;;;;;;;7.21;100.00;99477.09;5054048;28;20044;-60
2023/10/17 11:34:48;;;;;;;6.57;2.10;;;;;;;7.21;100.00;99497.88;5063417;28;20041;-60
2023/10/17 11:37:21;;;;;;;5.40;2.10;;;;;;;7.17;100.00;99501.44;5057700;28;20044;-59
2023/10/17 11:40:03;;;;;;;6.95;2.42;;;;;;;7.22;100.00;99499.63;5057988;28;20358;-60
2023/10/17 11:42:35;;;;;;;5.45;2.45;;;;;;;7.20;100.00;99516.97;5051969;28;20050;-60
2023/10/17 11:45:19;;;;;;;5.10;2.20;;;;;;;7.21;100.00;99523.88;5061665;28;20102;-60
2023/10/17 11:47:55;;;;;;;10.73;2.80;;;;;;;7.22;100.00;99527.34;5068049;28;20035;-60
2023/10/17 11:50:38;;;;;;;8.18;3.25;;;;;;;7.24;100.00;99521.25;5069034;28;20485;-60
2023/10/17 11:53:12;;;;;;;6.50;2.33;;;;;;;7.25;100.00;99520.34;5057873;28;20037;-60
2023/10/17 11:55:46;;;;;;;9.07;2.83;;;;;;;7.23;100.00;99537.69;5045308;28;20067;-60
2023/10/17 11:58:25;;;;;;;4.57;2.35;;;;;;;7.29;100.00;99527.25;5045329;28;20044;-60
2023/10/17 12:00:55;;;;;;;9.20;2.63;;;;;;;7.25;100.00;99522.97;5057419;28;20473;-59
2023/10/17 12:03:27;;;;;;;6.15;2.53;;;;;;;7.33;100.00;99534.09;5077402;28;20410;-60
2023/10/17 12:06:00;;;;;;;6.63;2.17;;;;;;;7.33;100.00;99554.88;5068619;28;20109;-59
2023/10/17 12:08:31;;;;;;;9.00;2.72;;;;;;;7.34;100.00;99550.56;5044204;28;20064;-60
2023/10/17 12:11:03;;;;;;;8.52;2.90;;;;;;;7.27;100.00;99542.00;5054698;28;20041;-60
2023/10/17 12:13:34;;;;;;;11.75;2.47;;;;;;;7.35;100.00;99563.50;5053222;28;20054;-60
2023/10/17 12:16:08;;;;;;;6.78;2.40;;;;;;;7.34;100.00;99572.22;5087285;28;20071;-60
2023/10/17 12:18:39;;;;;;;8.52;2.45;;;;;;;7.42;100.00;99579.03;5057055;28;20051;-60
2023/10/17 12:21:14;;;;;;;11.70;3.20;;;;;;;7.40;100.00;99586.00;5058548;28;20463;-60
2023/10/17 12:23:44;;;;;;;8.32;2.63;;;;;;;7.33;100.00;99586.06;5048817;28;20098;-60
2023/10/17 12:26:19;;;;;;;6.47;2.20;;;;;;;7.41;100.00;99590.31;5068289;28;20040;-59
2023/10/17 12:28:49;;;;;;;7.20;2.42;;;;;;;7.44;100.00;99593.72;5091668;28;20052;-61
2023/10/17 12:31:20;;;;;;;5.13;2.90;;;;;;;7.50;100.00;99608.38;5065206;28;20056;-60
2023/10/17 12:33:50;;;;;;;6.50;2.72;;;;;;;7.57;100.00;99604.81;5053151;28;20097;-60
2023/10/17 12:36:22;;;;;;;7.65;1.85;;;;;;;7.60;100.00;99609.94;5042522;28;20471;-60
2023/10/17 12:38:53;;;;;;;8.43;2.22;;;;;;;7.57;100.00;99610.00;5054304;28;20109;-60
2023/10/17 12:41:25;;;;;;;6.43;1.80;;;;;;;7.53;100.00;99616.13;5047323;28;20134;-60
2023/10/17 12:43:55;;;;;;;13.93;2.53;;;;;;;7.48;100.00;99610.13;5057054;28;20040;-60
2023/10/17 12:46:26;;;;;;;7.25;2.00;;;;;;;7.54;100.00;99620.47;5079341;28;20063;-59
2023/10/17 12:48:56;;;;;;;8.68;2.20;;;;;;;7.54;100.00;99633.47;5084830;28;20039;-60
2023/10/17 12:51:27;;;;;;;5.43;2.22;;;;;;;7.57;100.00;99639.47;5101593;28;20413;-59
2023/10/17 12:53:58;;;;;;;8.88;2.00;;;;;;;7.59;100.00;99644.66;5112835;28;20127;-59
2023/10/17 12:56:31;;;;;;;22.45;2.20;;;;;;;7.62;98.54;99644.59;5105358;28;20097;-60
2023/10/17 12:59:03;;;;;;;7.13;1.77;;;;;;;7.68;98.13;99654.03;5093120;28;20067;-60
2023/10/17 13:01:34;;;;;;;5.75;2.05;;;;;;;7.42;98.33;99615.44;5078150;28;20039;-59
2023/10/17 13:04:04;;;;;;;5.57;1.98;;;;;;;7.65;98.71;99644.53;5079781;28;20047;-60
2023/10/17 13:06:35;;;;;;;8.80;2.70;;;;;;;7.62;99.10;99660.19;5075315;28;20460;-60
2023/10/17 13:09:06;;;;;;;5.10;1.70;;;;;;;7.27;98.66;99612.16;5085591;28;20350;-60
2023/10/17 13:11:38;;;;;;;7.57;2.00;;;;;;;7.56;98.80;99668.06;5100272;28;20050;-60
2023/10/17 13:14:09;;;;;;;4.63;2.00;;;;;;;7.59;96.24;99668.06;5101482;28;20389;-60
2023/10/17 13:16:40;;;;;;;8.60;2.10;;;;;;;7.64;95.64;99676.66;5066912;28;20044;-59
2023/10/17 13:19:16;;;;;;;6.40;2.17;;;;;;;7.61;95.92;99676.66;5075569;28;20586;-59
2023/10/17 13:21:47;;;;;;;7.80;2.22;;;;;;;7.61;96.15;99688.81;5081095;28;20043;-59
2023/10/17 13:24:17;;;;;;;5.32;2.20;;;;;;;7.57;95.76;99682.81;5112711;28;20048;-59
2023/10/17 13:26:49;;;;;;;6.85;2.20;;;;;;;7.55;95.85;99700.16;5102439;28;20434;-60
2023/10/17 13:29:26;;;;;;;6.63;1.92;;;;;;;7.56;95.34;99696.66;5081135;28;20058;-60
2023/10/17 13:31:57;;;;;;;5.70;2.17;;;;;;;7.53;96.11;99712.31;5091655;28;20042;-59
2023/10/17 13:34:28;;;;;;;6.85;2.28;;;;;;;7.51;96.28;99707.16;5080071;28;20044;-60
2023/10/17 13:36:59;;;;;;;6.75;2.30;;;;;;;7.47;96.46;99713.25;5102143;28;20534;-59
2023/10/17 13:39:29;;;;;;;11.25;2.00;;;;;;;7.43;96.26;99723.72;5112573;28;20040;-59
2023/10/17 13:42:04;;;;;;;4.70;2.00;;;;;;;7.38;96.97;99731.56;5112272;28;20078;-60